Saturday, November 18, 2017, 11:57 PM EST
Back to Local

KFME, Fort Meade / Tipton

Location: Laurel, MD, United States Lat: 39.083
Local Time: 11:57 PM EST ( 4:57 GMT) Lon: -76.767
Time Zone: US/Eastern Elev: 150 ft

Show me the last for .
Show Decoded

2017-11-18 23:24 METAR KFME 190424Z AUTO 20013G26KT 10SM CLR 16/09 A2943 RMK AO1 =
2017-11-18 23:06 METAR KFME 190406Z AUTO 21011G21KT 10SM CLR 16/09 A2944 RMK AO1 =
2017-11-18 22:45 METAR KFME 190345Z AUTO 22016G26KT 10SM CLR 16/09 A2945 RMK AO1 =
2017-11-18 22:24 METAR KFME 190324Z AUTO 21017G23KT 10SM CLR 16/08 A2947 RMK AO1 =
2017-11-18 22:06 METAR KFME 190306Z AUTO 21014G23KT 10SM CLR 16/08 A2947 RMK AO1 =
2017-11-18 21:45 METAR KFME 190245Z AUTO 21016G25KT 10SM CLR 16/08 A2948 RMK AO1 =
2017-11-18 21:24 METAR KFME 190224Z AUTO 18010G17KT 10SM CLR 15/08 A2948 RMK AO1 =
2017-11-18 21:06 METAR KFME 190206Z AUTO 19009G15KT 10SM CLR 15/07 A2950 RMK AO1 =
2017-11-18 20:45 METAR KFME 190145Z AUTO 19008G14KT 10SM SCT120 15/07 A2952 RMK AO1 =
2017-11-18 20:24 METAR KFME 190124Z AUTO 19008G16KT 10SM SCT120 14/06 A2953 RMK AO1 =
2017-11-18 20:06 METAR KFME 190106Z AUTO 20009G17KT 10SM CLR 14/06 A2954 RMK AO1 =
2017-11-18 19:45 METAR KFME 190045Z AUTO 19007G14KT 10SM CLR 14/06 A2955 RMK AO1 =
2017-11-18 19:24 METAR KFME 190024Z AUTO 20007KT 10SM CLR 13/06 A2955 RMK AO1 =
2017-11-18 19:06 METAR KFME 190006Z AUTO 20009KT 10SM CLR 13/05 A2955 RMK AO1 =
2017-11-18 18:45 METAR KFME 182345Z AUTO 19007KT 10SM CLR 12/05 A2956 RMK AO1 =
2017-11-18 18:24 METAR KFME 182324Z AUTO 18005KT 10SM SCT120 12/04 A2959 RMK AO1 =
2017-11-18 18:06 METAR KFME 182306Z AUTO 18006KT 10SM CLR 12/04 A2959 RMK AO1 =
2017-11-18 17:45 METAR KFME 182245Z AUTO 16005KT 10SM CLR 12/05 A2960 RMK AO1 =
2017-11-18 17:24 METAR KFME 182224Z AUTO 18004KT 10SM SCT100 12/05 A2962 RMK AO1 =
2017-11-18 17:06 METAR KFME 182206Z AUTO 18003KT 10SM SCT100 12/05 A2962 RMK AO1 =
2017-11-18 16:45 METAR KFME 182145Z AUTO 17006KT 10SM BKN100 12/05 A2962 RMK AO1 =
2017-11-18 16:24 METAR KFME 182124Z AUTO 16007KT 10SM SCT047 SCT060 OVC100 12/05 A2962 RMK AO1 =
2017-11-18 16:06 METAR KFME 182106Z AUTO 19006G14KT 10SM SCT047 SCT060 OVC100 13/04 A2964 RMK AO1
                 =
2017-11-18 15:45 METAR KFME 182045Z AUTO 19003KT 10SM BKN100 13/03 A2965 RMK AO1 =
2017-11-18 15:24 METAR KFME 182024Z AUTO 22007G14KT 10SM SCT110 13/03 A2966 RMK AO1 =
2017-11-18 15:06 METAR KFME 182006Z AUTO 20010G16KT 10SM OVC110 14/02 A2966 RMK AO1 =
2017-11-18 14:45 METAR KFME 181945Z AUTO 22010KT 10SM SCT120 15/02 A2967 RMK AO1 =
2017-11-18 14:24 METAR KFME 181924Z AUTO 21011G15KT 10SM SCT120 15/02 A2967 RMK AO1 =
2017-11-18 14:06 METAR KFME 181906Z AUTO 21010G14KT 10SM SCT120 15/02 A2969 RMK AO1 =
2017-11-18 13:45 METAR KFME 181845Z AUTO 21009G19KT 10SM CLR 15/03 A2971 RMK AO1 =
2017-11-18 13:24 METAR KFME 181824Z AUTO 22011G19KT 10SM CLR 15/03 A2970 RMK AO1 =
2017-11-18 13:06 METAR KFME 181806Z AUTO 19007KT 10SM SCT100 13/03 A2972 RMK AO1 =
2017-11-18 12:45 METAR KFME 181745Z AUTO 19007G15KT 10SM SCT100 SCT120 13/02 A2974 RMK AO1 =
2017-11-18 12:24 METAR KFME 181724Z AUTO 19010G16KT 10SM CLR 12/02 A2975 RMK AO1 =
2017-11-18 12:06 METAR KFME 181706Z AUTO 21013G16KT 170V240 10SM CLR 13/02 A2977 RMK AO1 =
2017-11-18 11:45 METAR KFME 181645Z AUTO 22011G17KT 10SM BKN090 12/02 A2979 RMK AO1 =
2017-11-18 11:24 METAR KFME 181624Z AUTO 20009G14KT 170V240 10SM BKN090 12/02 A2981 RMK AO1 =
2017-11-18 11:06 METAR KFME 181606Z AUTO 19007KT 10SM SCT090 11/02 A2982 RMK AO1 =
2017-11-18 10:45 METAR KFME 181545Z AUTO 21008KT 10SM SCT070 SCT090 10/02 A2984 RMK AO1 =
2017-11-18 10:24 METAR KFME 181524Z AUTO 16003KT 10SM CLR 08/02 A2985 RMK AO1 =
2017-11-18 10:06 METAR KFME 181506Z AUTO 00000KT 10SM CLR 07/02 A2986 RMK AO1 =
2017-11-18 09:45 METAR KFME 181445Z AUTO 17004KT 10SM SCT090 06/02 A2988 RMK AO1 =
2017-11-18 09:24 METAR KFME 181424Z AUTO 17005KT 10SM SCT100 05/01 A2989 RMK AO1 =
2017-11-18 09:06 METAR KFME 181406Z AUTO 17005KT 10SM SCT100 04/01 A2990 RMK AO1 =
2017-11-18 08:45 METAR KFME 181345Z AUTO 16003KT 10SM CLR 03/01 A2991 RMK AO1 =
2017-11-18 08:24 METAR KFME 181324Z AUTO 17003KT 10SM CLR 02/01 A2992 RMK AO1 =
2017-11-18 08:06 METAR KFME 181306Z AUTO 00000KT 10SM CLR 00/00 A2993 RMK AO1 =
2017-11-18 07:45 METAR KFME 181245Z AUTO 00000KT 10SM CLR M01/M01 A2993 RMK AO1 =
2017-11-18 07:24 METAR KFME 181224Z AUTO 00000KT 10SM CLR M01/M02 A2995 RMK AO1 =
2017-11-18 07:06 METAR KFME 181206Z AUTO 16003KT 10SM CLR M02/M02 A2995 RMK AO1 =
2017-11-18 06:45 METAR KFME 181145Z AUTO 00000KT 10SM CLR M02/M02 A2997 RMK AO1 =
2017-11-18 06:24 METAR KFME 181124Z AUTO 19003KT 10SM CLR M02/M02 A2998 RMK AO1 =
2017-11-18 06:06 METAR KFME 181106Z AUTO 00000KT 10SM CLR M02/M02 A2998 RMK AO1 =
2017-11-18 05:45 METAR KFME 181045Z AUTO 15003KT 10SM CLR M02/M02 A2998 RMK AO1 =
2017-11-18 05:24 METAR KFME 181024Z AUTO 00000KT 10SM CLR M02/M02 A3000 RMK AO1 =
2017-11-18 05:06 METAR KFME 181006Z AUTO 00000KT 10SM CLR M02/M02 A3002 RMK AO1 =
2017-11-18 04:45 METAR KFME 180945Z AUTO 00000KT 10SM CLR M02/M03 A3002 RMK AO1 =
2017-11-18 04:24 METAR KFME 180924Z AUTO 00000KT 10SM CLR M02/M02 A3002 RMK AO1 =
2017-11-18 04:06 METAR KFME 180906Z AUTO 00000KT 10SM CLR M02/M03 A3003 RMK AO1 =
2017-11-18 03:45 METAR KFME 180845Z AUTO 00000KT 10SM CLR M02/M03 A3003 RMK AO1 =
2017-11-18 03:24 METAR KFME 180824Z AUTO 00000KT 10SM CLR M02/M03 A3004 RMK AO1 =
2017-11-18 03:06 METAR KFME 180806Z AUTO 00000KT 10SM CLR M02/M02 A3005 RMK AO1 =
2017-11-18 02:45 METAR KFME 180745Z AUTO 00000KT 10SM CLR M02/M02 A3005 RMK AO1 =
2017-11-18 02:24 METAR KFME 180724Z AUTO 00000KT 10SM CLR M02/M02 A3006 RMK AO1 =
2017-11-18 02:06 METAR KFME 180706Z AUTO 00000KT 10SM CLR M02/M02 A3006 RMK AO1 =
2017-11-18 01:45 METAR KFME 180645Z AUTO 00000KT 10SM CLR M01/M02 A3007 RMK AO1 =
2017-11-18 01:24 METAR KFME 180624Z AUTO 00000KT 10SM CLR M01/M01 A3008 RMK AO1 =
2017-11-18 01:06 METAR KFME 180606Z AUTO 00000KT 10SM CLR M01/M01 A3009 RMK AO1 =
2017-11-18 00:45 METAR KFME 180545Z AUTO 00000KT 10SM CLR M01/M01 A3010 RMK AO1 =
2017-11-18 00:24 METAR KFME 180524Z AUTO 00000KT 10SM CLR M01/M02 A3011 RMK AO1 =
2017-11-18 00:06 METAR KFME 180506Z AUTO 00000KT 10SM CLR M01/M02 A3012 RMK AO1 =

Support USWX by starting your Amazon purchase here.